Dati Storici

Data ora Umidita' aria (%) Temperatura aria (°C) Rad globale (W/m²) Gonioanemometro (°) Tacoanemometro (m/s) Pioggia (mm)
04-08-2012 00:40 81.2 % 24.181 0.98 30.213 1.538 0
04-08-2012 00:30 81 % 24.245 1.312 31.257 2.279 0
04-08-2012 00:20 80.6 % 24.4 1.069 10.409 1.403 0
04-08-2012 00:10 79.5 % 24.584 0.672 65.964 1.703 0
04-08-2012 00:00 77.6 % 25.087 0.838 21.058 2.148 0
03-08-2012 23:50 76.2 % 25.422 0.339 24.607 0.845 0
03-08-2012 23:40 73.6 % 25.551 -0.135 48.721 0.442 0
03-08-2012 23:30 71.3 % 25.878 0.364 41.163 0.768 0
03-08-2012 23:20 66.5 % 26.587 -0.032 352.234 0.484 0
03-08-2012 23:10 64.3 % 26.929 -0.007 55.86 -0.019 0
03-08-2012 23:00 64.7 % 27.126 0.032 255.349 0.339 0
03-08-2012 22:50 65.5 % 27.273 -0.007 241.159 0.75 0
03-08-2012 22:40 65.9 % 27.467 0.185 176.543 0.911 0
03-08-2012 22:30 65.7 % 27.508 0.236 198.598 1.45 0
03-08-2012 22:20 68.7 % 27.391 0.275 220.046 0.244 0
03-08-2012 22:10 71.4 % 27.026 0.224 179.176 0.514 0
03-08-2012 22:00 71.9 % 26.843 0.198 171.02 1.122 0
03-08-2012 21:50 72.5 % 26.614 0.134 192.477 0.436 0
03-08-2012 21:40 72.8 % 26.715 0.301 151.006 1.1 0
03-08-2012 21:30 73.5 % 26.502 -0.186 140.287 1.048 0

I dati sono presentati in modo automatico a scopo informativo. In seguito a verifica i dati possono subire modifiche o essere invalidati e non riportati negli archivi definitivi.